Startpagina
METAR-TAF:

METAR-TAF

Vliegvelden :

Curaçao, Nederlandse Antillen

Curaçao International Airport

breedte: 12-12N, lengte: 068-58W, hoogte: 9 m

Actueel weer

Dit bericht is 1 uur en het 13 minuten geleden gemaakt, om 20:00 UTC
Wind 13 kt uit het oosten
Temperatuur 32°C
Vochtigheid 67%
Druk 1009 hPa
Zicht 10 km of meer
Weinig wolken op 2400 ft

METAR: TNCC 242000Z 09013KT 9999 FEW024 32/25 Q1009 NOSIG

Tijdstip: 17:13 (21:13 UTC)

Verwachting

Dit bericht is 5 uur en het 28 minuten geleden gemaakt, om 15:45 UTC
Verwachting geldig van 24 om 18 UTC tot 25 om 18 UTC
Wind 14 kt uit het oosten
Zicht 10 km of meer
Weinig wolken op 2400 ft
Kans 30% :
Tijdelijke
van 25 om 09 UTC tot 25 om 16 UTC
Wind 15 kt uit het zuidoosten met uitschieters tot 25 kt
Zicht: 6000 m
Weinig wolken op 1200 ft, Cumulonimbus.
Gebroken wolken op 1500 ft
regenbuien

TAF: TNCC 241545Z 2418/2518 10014KT 9999 FEW024 PROB30 TEMPO 2509/2516 14015G25KT 6000 SHRA FEW012CB BKN015

Waarnemingen en weersverwachtingen van meer dan 4000 vliegvelden (METAR en TAF).

De beschikbare stations zijn de gele en rode punten op de kaart.

Ga met uw muis naar het station om de naam te zien.

Klik dan om waarnemingen en weersverwachtingen te zien.

kaart wijzigen: klik op de groene knoppen met een zwart kruis om in te zoomen, op de groene knop met een streepje om uit te zoomen of op de groene pijlen voor aangrenzende kaarten.


METAR-TAF: